Main page
METAR-TAF:

METAR-TAF

Airports :

Chandler Municipal Airport

Chandler, Arizona, United States

latitude: 33-16-09N, longitude: 111-48-40W, elevation: 1243 ft

Current weather observation

The report was made 2 hours and 12 minutes ago, at 00:47 UTC
Wind 13 mph from the West with gusts up to 21 mph
Temperature 68°F
Humidity 30%
Pressure 29.90 in. Hg
Visibility: 10 miles
Few clouds at a height of 6000 ft

METAR: KCHD 040047Z 26011G18KT 10SM FEW060 20/02 A2990

Time: 19:59 (02:59 UTC)


TAF: missing

Weather observations and forecasts of more than 4000 airports (METAR and TAF reports).

The available stations are represented by yellow and red dots on the map.

Hover mouse over dot to see the name of the station.

Then click to see weather observations and forecasts.

To change the map : click on the green buttons with a black cross to zoom in, on the green button with a dash to zoom out, or on the green arrows for adjacent maps.


METAR-TAF: